Time;durP1;ratioP1;P1;durP2;ratioP2;P2;SDS_P1;SDS_P2;PMS_P1;PMS_P2;Temp;Humidity;BMP_temperature;BMP_pressure;BME280_temperature;BME280_humidity;BME280_pressure;Samples;Min_cycle;Max_cycle;Signal;HPM_P1;HPM_P2
2022/06/22 00:00:02;;;;;;;9.50;8.00;;;;;;;13.45;65.25;100153.98;110103;1257;24451;-80
2022/06/22 00:03:24;;;;;;;11.00;8.90;;;;;;;13.34;65.28;100157.07;110712;1257;21980;-80
2022/06/22 00:07:09;;;;;;;10.80;8.60;;;;;;;13.25;65.54;100161.90;109613;1264;22093;-81
2022/06/22 00:10:10;;;;;;;;;;;;;;;;;;;;;
2022/06/22 00:13:07;;;;;;;;;;;;;;;;;;;;;
2022/06/22 00:16:07;;;;;;;14.10;9.10;;;;;;;13.07;65.93;100150.98;109007;1267;22052;-78
2022/06/22 00:19:39;;;;;;;13.80;8.80;;;;;;;13.02;65.99;100149.01;108957;1267;21968;-78
2022/06/22 00:22:43;;;;;;;8.40;7.50;;;;;;;13.01;66.15;100151.80;108977;1267;23609;-78
2022/06/22 00:25:32;;;;;;;8.90;7.60;;;;;;;12.97;66.40;100149.81;109167;1267;23051;-76
2022/06/22 00:28:55;;;;;;;10.20;7.30;;;;;;;12.98;66.66;100148.77;108852;1270;23069;-78
2022/06/22 00:31:41;;;;;;;7.20;6.50;;;;;;;12.96;66.66;100149.40;108378;1279;22012;-77
2022/06/22 00:34:36;;;;;;;8.00;6.60;;;;;;;12.95;66.79;100153.02;108107;1280;23619;-77
2022/06/22 00:37:36;;;;;;;12.50;6.40;;;;;;;12.93;66.71;100152.89;107657;1285;22018;-77
2022/06/22 00:40:16;;;;;;;9.90;6.90;;;;;;;12.91;66.54;100151.59;108065;1283;23914;-76
2022/06/22 00:43:03;;;;;;;10.20;6.90;;;;;;;12.86;66.54;100152.52;107883;1279;23058;-77
2022/06/22 00:45:37;;;;;;;7.60;6.50;;;;;;;12.82;66.61;100145.91;108032;1279;21995;-76
2022/06/22 00:48:33;;;;;;;7.50;6.40;;;;;;;12.78;66.82;100140.22;108507;1273;22802;-76
2022/06/22 00:51:19;;;;;;;10.40;9.10;;;;;;;12.73;66.91;100143.07;108709;1273;23055;-77
2022/06/22 00:54:02;;;;;;;9.00;7.60;;;;;;;12.68;67.09;100140.11;108367;1276;22100;-77
2022/06/22 00:56:57;;;;;;;9.60;7.10;;;;;;;12.67;67.40;100141.42;108230;1276;22050;-78
2022/06/22 01:00:23;;;;;;;8.30;7.30;;;;;;;12.65;67.42;100144.79;108159;1282;21989;-76
2022/06/22 01:03:21;;;;;;;10.60;6.60;;;;;;;12.60;67.39;100152.71;108288;1276;22040;-75
2022/06/22 01:06:14;;;;;;;8.20;6.80;;;;;;;12.59;67.76;100161.30;108654;1273;22003;-75
2022/06/22 01:09:06;;;;;;;10.90;6.50;;;;;;;12.61;67.93;100172.77;108889;1267;21973;-75
2022/06/22 01:12:25;;;;;;;7.80;5.60;;;;;;;12.61;67.98;100175.36;109253;1261;21993;-77
2022/06/22 01:15:27;;;;;;;10.10;6.50;;;;;;;12.61;67.91;100171.88;109688;1260;23757;-76
2022/06/22 01:18:42;;;;;;;9.80;6.20;;;;;;;12.59;67.78;100166.95;109869;1260;21959;-76
2022/06/22 01:21:48;;;;;;;9.20;6.70;;;;;;;12.56;67.57;100166.23;109165;1267;21995;-76
2022/06/22 01:25:22;;;;;;;8.70;6.50;;;;;;;12.52;67.51;100161.48;109083;1267;21977;-76
2022/06/22 01:28:05;;;;;;;9.30;6.50;;;;;;;12.42;67.72;100158.56;108925;1270;23606;-75
2022/06/22 01:30:51;;;;;;;11.20;6.90;;;;;;;12.36;67.91;100160.89;108536;1273;23737;-75
2022/06/22 01:33:49;;;;;;;9.20;6.30;;;;;;;12.34;68.03;100160.81;108547;1273;22261;-75
2022/06/22 01:36:48;;;;;;;10.60;5.90;;;;;;;12.33;68.19;100159.86;108910;1267;21963;-75
2022/06/22 01:40:18;;;;;;;9.40;6.90;;;;;;;12.32;68.24;100164.61;109021;1266;22058;-75
2022/06/22 01:43:34;;;;;;;8.80;6.20;;;;;;;12.29;68.14;100166.05;109320;1265;21969;-76
2022/06/22 01:47:18;;;;;;;7.80;6.00;;;;;;;12.26;68.09;100178.19;109514;1260;24545;-76
2022/06/22 01:50:15;;;;;;;9.40;6.00;;;;;;;12.19;68.01;100179.64;109678;1261;21983;-75
2022/06/22 01:53:45;;;;;;;;;;;;;;;;;;;;;
2022/06/22 01:56:56;;;;;;;;;;;;;;;;;;;;;
2022/06/22 02:00:17;;;;;;;8.60;6.50;;;;;;;12.07;68.10;100190.98;108537;1276;23599;-75
2022/06/22 02:03:12;;;;;;;10.10;6.10;;;;;;;12.06;68.36;100191.52;108332;1276;22023;-76
2022/06/22 02:09:23;;;;;;;8.00;6.60;;;;;;;12.02;68.46;100185.42;108307;1279;22058;-76
2022/06/22 02:15:50;;;;;;;8.20;7.00;;;;;;;11.95;68.47;100176.52;108419;1276;22027;-76
2022/06/22 02:18:34;;;;;;;10.20;7.30;;;;;;;11.88;68.58;100179.17;108372;1274;21997;-76
2022/06/22 02:21:57;;;;;;;9.00;7.60;;;;;;;11.80;68.58;100187.83;108642;1273;21989;-77
2022/06/22 02:25:03;;;;;;;10.30;6.50;;;;;;;11.71;68.60;100194.52;108483;1269;21977;-74
2022/06/22 02:27:44;;;;;;;7.30;6.50;;;;;;;11.69;68.81;100193.27;108904;1267;22768;-76
2022/06/22 02:31:15;;;;;;;8.10;6.60;;;;;;;11.66;68.85;100195.06;109239;1266;23151;-76
2022/06/22 02:34:41;;;;;;;9.80;7.50;;;;;;;11.67;69.18;100198.16;109157;1265;21983;-76
2022/06/22 02:38:18;;;;;;;10.30;6.30;;;;;;;11.68;69.20;100201.96;109341;1264;21990;-77
2022/06/22 02:45:42;;;;;;;;;;;;;;;;;;;;;
2022/06/22 02:52:31;;;;;;;8.30;6.60;;;;;;;11.69;69.32;100199.01;108420;1276;21990;-75
2022/06/22 02:56:25;;;;;;;;;;;;;;;;;;;;;
2022/06/22 02:58:59;;;;;;;10.70;7.20;;;;;;;11.70;69.39;100199.69;108232;1276;21981;-76
2022/06/22 03:02:41;;;;;;;;;;;;;;;;;;;;;
2022/06/22 03:06:27;;;;;;;9.60;6.90;;;;;;;11.76;69.67;100192.42;108320;1276;22339;-77
2022/06/22 03:09:54;;;;;;;10.00;7.40;;;;;;;11.80;69.59;100192.36;107947;1283;22124;-76
2022/06/22 03:13:00;;;;;;;10.70;7.20;;;;;;;11.84;69.45;100195.73;107716;1280;24355;-77
2022/06/22 03:16:51;;;;;;;11.30;7.70;;;;;;;11.82;69.42;100197.79;108136;1280;21979;-76
2022/06/22 03:20:45;;;;;;;;;;;;;;;;;;;;;
2022/06/22 03:24:09;;;;;;;13.70;8.60;;;;;;;11.92;69.89;100201.66;106960;1292;22030;-77
2022/06/22 03:27:36;;;;;;;;;;;;;;;;;;;;;
2022/06/22 03:30:46;;;;;;;;;;;;;;;;;;;;;
2022/06/22 03:34:15;;;;;;;;;;;;;;;;;;;;;
2022/06/22 03:37:37;;;;;;;12.20;8.80;;;;;;;12.04;69.62;100195.84;106651;1292;23063;-75
2022/06/22 03:40:45;;;;;;;11.70;7.00;;;;;;;12.08;69.64;100197.61;107356;1289;22039;-75
2022/06/22 03:44:11;;;;;;;16.40;11.70;;;;;;;12.14;69.65;100198.84;107414;1289;22015;-76
2022/06/22 03:47:06;;;;;;;12.60;7.80;;;;;;;12.20;69.53;100201.98;107744;1284;22005;-76
2022/06/22 03:50:58;;;;;;;;;;;;;;;;;;;;;
2022/06/22 03:54:19;;;;;;;10.90;6.60;;;;;;;12.38;69.65;100203.98;107438;1289;23095;-76
2022/06/22 03:57:43;;;;;;;7.00;5.30;;;;;;;12.48;69.58;100201.55;107754;1283;22027;-76
2022/06/22 04:01:35;;;;;;;;;;;;;;;;;;;;;
2022/06/22 04:05:14;;;;;;;;;;;;;;;;;;;;;
2022/06/22 04:08:46;;;;;;;9.60;6.60;;;;;;;12.86;69.38;100199.05;107995;1283;22140;-77
2022/06/22 04:12:12;;;;;;;;;;;;;;;;;;;;;
2022/06/22 04:16:13;;;;;;;;;;;;;;;;;;;;;
2022/06/22 04:19:49;;;;;;;;;;;;;;;;;;;;;
2022/06/22 04:22:52;;;;;;;12.70;10.40;;;;;;;13.41;68.98;100198.69;107111;1292;23539;-76
2022/06/22 04:26:17;;;;;;;;;;;;;;;;;;;;;
2022/06/22 04:29:55;;;;;;;10.10;7.60;;;;;;;13.83;68.59;100197.48;107465;1287;23084;-76
2022/06/22 04:33:37;;;;;;;;;;;;;;;;;;;;;
2022/06/22 04:36:46;;;;;;;10.40;6.30;;;;;;;14.35;67.90;100204.20;107922;1285;22771;-77
2022/06/22 04:39:50;;;;;;;98.00;23.60;;;;;;;14.59;67.47;100204.14;107653;1288;23013;-76
2022/06/22 04:47:17;;;;;;;11.60;5.80;;;;;;;15.03;65.44;100205.34;108379;1276;23747;-76
2022/06/22 04:51:10;;;;;;;20.70;4.80;;;;;;;15.17;64.84;100195.91;108438;1276;21999;-77
2022/06/22 04:54:47;;;;;;;;;;;;;;;;;;;;;
2022/06/22 04:58:11;;;;;;;;;;;;;;;;;;;;;
2022/06/22 05:02:32;;;;;;;;;;;;;;;;;;;;;
2022/06/22 05:05:47;;;;;;;8.10;3.80;;;;;;;15.48;62.57;100205.14;108209;1280;22611;-76
2022/06/22 05:09:41;;;;;;;10.90;5.40;;;;;;;15.68;62.36;100204.85;107547;1286;545904;-77
2022/06/22 05:13:53;;;;;;;18.10;6.40;;;;;;;15.77;61.92;100221.79;110485;1255;23125;-77
2022/06/22 05:16:48;;;;;;;11.20;4.80;;;;;;;15.88;62.01;100231.98;109797;1262;22550;-75
2022/06/22 05:19:23;;;;;;;11.20;4.90;;;;;;;16.02;62.10;100232.54;109775;1262;21978;-75
2022/06/22 05:21:52;;;;;;;7.10;4.30;;;;;;;16.19;62.03;100237.94;109541;1260;386498;-75
2022/06/22 05:24:32;;;;;;;8.10;4.90;;;;;;;16.39;61.86;100242.55;109867;1259;22072;-75
2022/06/22 05:27:28;;;;;;;;;;;;;;;;;;;;;
2022/06/22 05:30:10;;;;;;;6.90;5.40;;;;;;;16.84;61.12;100239.23;108894;1270;21997;-75
2022/06/22 05:32:52;;;;;;;10.30;6.00;;;;;;;17.13;60.55;100242.52;108854;1271;21981;-75
2022/06/22 05:35:46;;;;;;;12.60;6.30;;;;;;;17.46;59.84;100248.60;109071;1267;23755;-75
2022/06/22 05:38:27;;;;;;;14.00;5.90;;;;;;;17.74;58.96;100244.93;109709;1262;22138;-75
2022/06/22 05:41:04;;;;;;;9.90;5.30;;;;;;;18.00;58.01;100243.27;109724;1261;23039;-75
2022/06/22 05:43:49;;;;;;;9.60;6.20;;;;;;;18.23;57.10;100241.14;109839;1261;21997;-76
2022/06/22 05:46:27;;;;;;;9.30;5.10;;;;;;;18.42;56.20;100241.17;110430;1256;22827;-75
2022/06/22 05:49:30;;;;;;;11.80;5.90;;;;;;;18.55;55.40;100243.80;110578;1251;23027;-78
2022/06/22 05:52:24;;;;;;;6.50;3.90;;;;;;;18.70;55.63;100246.88;110756;1250;22087;-74
2022/06/22 05:55:28;;;;;;;8.80;4.00;;;;;;;19.00;55.67;100244.85;110273;1256;23486;-77
2022/06/22 05:58:33;;;;;;;7.60;3.30;;;;;;;19.33;55.30;100243.66;110115;1256;23599;-75
2022/06/22 06:01:51;;;;;;;11.80;5.20;;;;;;;19.70;54.27;100244.73;110446;1256;22804;-75
2022/06/22 06:05:08;;;;;;;8.00;3.60;;;;;;;20.23;53.04;100250.10;110146;1256;23634;-75
2022/06/22 06:08:29;;;;;;;;;;;;;;;;;;;;;
2022/06/22 06:11:46;;;;;;;5.60;2.80;;;;;;;21.52;51.40;100248.20;109719;1262;23416;-76
2022/06/22 06:14:30;;;;;;;6.60;3.20;;;;;;;22.04;49.41;100243.92;109945;1260;23647;-76
2022/06/22 06:17:46;;;;;;;11.10;4.30;;;;;;;22.41;47.77;100240.23;109321;1267;23659;-76
2022/06/22 06:23:37;;;;;;;5.20;3.20;;;;;;;23.03;45.90;100235.92;108697;1270;21987;-75
2022/06/22 06:30:07;;;;;;;8.70;2.50;;;;;;;23.55;44.15;100243.61;109134;1266;22043;-75
2022/06/22 06:33:16;;;;;;;6.00;2.80;;;;;;;23.59;43.34;100245.17;109202;1264;21983;-76
2022/06/22 06:35:55;;;;;;;7.00;2.60;;;;;;;23.50;43.00;100246.92;109972;1258;22322;-78
2022/06/22 06:38:31;;;;;;;9.80;4.70;;;;;;;23.39;42.94;100245.27;109865;1259;22761;-77
2022/06/22 06:41:26;;;;;;;5.60;2.90;;;;;;;23.37;43.16;100240.77;109974;1259;21977;-77
2022/06/22 06:44:18;;;;;;;9.10;3.20;;;;;;;23.34;42.96;100243.05;109592;1263;22060;-78
2022/06/22 06:47:05;;;;;;;5.90;3.40;;;;;;;23.44;43.54;100244.92;109368;1262;21980;-77
2022/06/22 06:50:08;;;;;;;6.70;3.40;;;;;;;23.65;43.32;100243.41;109679;1261;23030;-78
2022/06/22 06:53:12;;;;;;;6.50;2.80;;;;;;;23.93;42.92;100240.08;109619;1262;23677;-77
2022/06/22 06:56:06;;;;;;;10.30;2.80;;;;;;;24.27;42.21;100239.88;109600;1261;22251;-76
2022/06/22 06:58:55;;;;;;;4.60;2.10;;;;;;;24.53;41.72;100243.52;110345;1256;23031;-77
2022/06/22 07:01:37;;;;;;;9.20;2.50;;;;;;;24.87;40.90;100243.69;110511;1250;23548;-77
2022/06/22 07:04:34;;;;;;;6.80;2.50;;;;;;;25.13;40.10;100243.23;110691;1250;22916;-77
2022/06/22 07:07:30;;;;;;;4.60;2.20;;;;;;;25.38;39.23;100248.33;110754;1250;21959;-78
2022/06/22 07:10:13;;;;;;;4.90;2.50;;;;;;;25.61;38.85;100243.48;110894;1249;21971;-77
2022/06/22 07:13:28;;;;;;;3.80;1.80;;;;;;;25.88;38.26;100246.58;110940;1250;21972;-78
2022/06/22 07:16:09;;;;;;;5.50;2.10;;;;;;;26.08;36.78;100249.00;110482;1256;23651;-79
2022/06/22 07:18:48;;;;;;;5.50;1.80;;;;;;;26.22;36.34;100247.52;110099;1256;23638;-77
2022/06/22 07:21:37;;;;;;;3.90;1.90;;;;;;;26.38;35.97;100247.64;109576;1262;21982;-77
2022/06/22 07:24:25;;;;;;;3.40;1.60;;;;;;;26.67;35.31;100246.42;109501;1263;22013;-78
2022/06/22 07:27:27;;;;;;;3.90;1.50;;;;;;;26.87;34.66;100246.98;109644;1261;23601;-79
2022/06/22 07:30:18;;;;;;;7.10;1.70;;;;;;;27.07;34.52;100245.20;109606;1263;22198;-78
2022/06/22 07:33:07;;;;;;;9.20;2.50;;;;;;;27.32;33.28;100244.25;109616;1262;21969;-78
2022/06/22 07:36:03;;;;;;;3.00;1.40;;;;;;;27.39;32.45;100242.48;110600;1255;22615;-79
2022/06/22 07:38:58;;;;;;;5.10;1.80;;;;;;;27.59;32.56;100249.48;109955;1260;24459;-75
2022/06/22 07:41:35;;;;;;;3.90;1.90;;;;;;;27.77;31.79;100251.15;110005;1256;22749;-75
2022/06/22 07:44:24;;;;;;;7.90;2.80;;;;;;;27.83;31.69;100248.79;110243;1256;21973;-75
2022/06/22 07:47:18;;;;;;;5.10;1.60;;;;;;;28.05;31.63;100249.13;109868;1261;22086;-75
2022/06/22 07:50:01;;;;;;;5.20;1.90;;;;;;;28.31;30.75;100255.59;110121;1260;22268;-74
2022/06/22 07:52:57;;;;;;;3.60;2.40;;;;;;;28.54;29.17;100251.33;109488;1261;23099;-75
2022/06/22 07:56:03;;;;;;;5.20;2.00;;;;;;;28.45;28.28;100249.53;109612;1261;22067;-75
2022/06/22 07:58:37;;;;;;;3.50;1.20;;;;;;;28.53;29.01;100250.20;110574;1255;21976;-75
2022/06/22 08:01:17;;;;;;;2.00;1.10;;;;;;;28.78;29.23;100251.05;110550;1256;22444;-80
2022/06/22 08:03:55;;;;;;;5.30;2.70;;;;;;;29.03;28.55;100256.11;110596;1255;24302;-79
2022/06/22 08:06:37;;;;;;;7.70;4.20;;;;;;;29.25;27.62;100252.54;110610;1249;24280;-79
2022/06/22 08:09:23;;;;;;;7.20;2.50;;;;;;;29.38;27.08;100256.54;110846;1250;21957;-79
2022/06/22 08:12:33;;;;;;;3.00;1.40;;;;;;;29.44;27.37;100256.02;110819;1250;21960;-78
2022/06/22 08:15:13;;;;;;;3.20;1.40;;;;;;;29.49;27.26;100260.13;110410;1256;22039;-79
2022/06/22 08:17:47;;;;;;;4.60;1.20;;;;;;;29.49;26.95;100257.13;110613;1253;22932;-79
2022/06/22 08:20:23;;;;;;;3.00;0.80;;;;;;;29.47;27.31;100253.84;110071;1261;23681;-79
2022/06/22 08:22:58;;;;;;;4.90;1.10;;;;;;;29.51;26.24;100257.04;109506;1262;23590;-78
2022/06/22 08:25:50;;;;;;;3.20;1.40;;;;;;;29.40;25.80;100254.44;109751;1261;22006;-79
2022/06/22 08:28:22;;;;;;;2.90;1.00;;;;;;;29.50;25.83;100251.40;110046;1262;22643;-79
2022/06/22 08:30:56;;;;;;;4.30;2.30;;;;;;;29.52;25.48;100252.79;109710;1261;21976;-78
2022/06/22 08:33:45;;;;;;;2.40;0.70;;;;;;;29.58;25.25;100253.63;109846;1262;22618;-79
2022/06/22 08:37:06;;;;;;;4.80;1.20;;;;;;;29.74;24.65;100249.56;109838;1262;23174;-79
2022/06/22 08:39:48;;;;;;;3.00;1.20;;;;;;;29.72;24.99;100249.66;109152;1268;21988;-79
2022/06/22 08:42:43;;;;;;;3.20;1.30;;;;;;;29.84;25.18;100245.77;109071;1268;22074;-77
2022/06/22 08:45:39;;;;;;;2.50;1.10;;;;;;;29.98;24.99;100248.65;109173;1265;22035;-77
2022/06/22 08:48:42;;;;;;;3.40;1.20;;;;;;;29.90;24.66;100243.70;109375;1264;23606;-77
2022/06/22 08:51:27;;;;;;;4.80;1.40;;;;;;;29.84;25.52;100248.44;109841;1259;23323;-77
2022/06/22 08:54:20;;;;;;;2.90;1.40;;;;;;;29.95;25.81;100243.31;110171;1259;21974;-77
2022/06/22 08:57:14;;;;;;;5.70;1.20;;;;;;;30.07;25.81;100241.69;110332;1257;21958;-77
2022/06/22 09:00:27;;;;;;;6.80;1.60;;;;;;;30.14;26.02;100239.51;110319;1257;22777;-77
2022/06/22 09:03:31;;;;;;;4.00;1.50;;;;;;;30.21;25.64;100236.70;110277;1259;21988;-77
2022/06/22 09:06:49;;;;;;;5.50;1.60;;;;;;;30.22;26.19;100233.27;109640;1262;21982;-78
2022/06/22 09:09:41;;;;;;;4.20;1.40;;;;;;;30.37;26.29;100230.52;109749;1262;24301;-77
2022/06/22 09:12:37;;;;;;;2.90;1.60;;;;;;;30.48;25.72;100228.30;109810;1261;23590;-77
2022/06/22 09:15:50;;;;;;;3.60;1.10;;;;;;;30.44;25.42;100233.10;109592;1263;22039;-77
2022/06/22 09:18:45;;;;;;;;;;;;;;;30.34;26.04;100235.21;110303;1256;22161;-76
2022/06/22 09:22:12;;;;;;;7.60;2.00;;;;;;;30.14;26.05;100231.10;110388;1257;21969;-77
2022/06/22 09:25:32;;;;;;;3.30;1.30;;;;;;;30.20;26.08;100225.02;110488;1256;22009;-77
2022/06/22 09:28:09;;;;;;;3.80;1.30;;;;;;;30.34;25.93;100227.25;110180;1257;23631;-77
2022/06/22 09:31:14;;;;;;;2.20;1.10;;;;;;;30.41;25.88;100229.91;110389;1256;22015;-77
2022/06/22 09:34:07;;;;;;;4.50;1.20;;;;;;;30.61;25.71;100234.50;110491;1256;23049;-77
2022/06/22 09:37:17;;;;;;;4.70;1.10;;;;;;;30.77;25.23;100234.25;110407;1256;21974;-77
2022/06/22 09:40:12;;;;;;;3.30;1.00;;;;;;;30.84;24.93;100229.48;110201;1256;21963;-76
2022/06/22 09:43:27;;;;;;;3.60;1.10;;;;;;;30.84;24.59;100225.48;110516;1250;22733;-77
2022/06/22 09:46:28;;;;;;;2.60;1.10;;;;;;;30.70;24.41;100219.16;110632;1254;22349;-77
2022/06/22 09:49:33;;;;;;;6.80;1.60;;;;;;;30.65;24.26;100215.23;110525;1253;21982;-77
2022/06/22 09:53:11;;;;;;;2.60;0.90;;;;;;;30.59;24.02;100214.11;110544;1253;23567;-76
2022/06/22 09:56:24;;;;;;;4.20;1.30;;;;;;;30.40;23.96;100208.11;109827;1260;22019;-80
2022/06/22 09:59:21;;;;;;;4.50;1.60;;;;;;;30.37;24.47;100205.57;109737;1262;23065;-78
2022/06/22 10:02:21;;;;;;;4.60;1.20;;;;;;;30.41;24.45;100205.33;110040;1260;22250;-80
2022/06/22 10:05:06;;;;;;;6.10;1.80;;;;;;;30.49;24.43;100201.79;110246;1257;21973;-78
2022/06/22 10:08:16;;;;;;;4.70;1.20;;;;;;;30.47;24.22;100205.80;110355;1256;23483;-77
2022/06/22 10:11:35;;;;;;;3.10;1.50;;;;;;;30.30;23.98;100212.19;110467;1256;23608;-78
2022/06/22 10:14:58;;;;;;;18.30;3.10;;;;;;;30.02;24.52;100208.77;109633;1262;23037;-79
2022/06/22 10:17:54;;;;;;;5.40;3.70;;;;;;;29.84;24.46;100199.36;109201;1267;23002;-78
2022/06/22 10:21:10;;;;;;;3.00;1.70;;;;;;;29.65;24.94;100201.80;109093;1268;22982;-78
2022/06/22 10:24:22;;;;;;;;;;;;;;;29.51;24.95;100210.95;108803;1273;23690;-78
2022/06/22 10:27:46;;;;;;;4.80;2.00;;;;;;;29.25;25.76;100202.33;108847;1267;22998;-82
2022/06/22 10:30:37;;;;;;;4.60;1.40;;;;;;;29.24;25.73;100197.45;109418;1267;21977;-80
2022/06/22 10:33:50;;;;;;;2.70;1.10;;;;;;;29.19;25.55;100191.22;109439;1265;22029;-81
2022/06/22 10:36:59;;;;;;;4.10;3.00;;;;;;;29.15;25.54;100184.80;109571;1260;24419;-79
2022/06/22 10:39:48;;;;;;;3.20;1.50;;;;;;;29.13;25.63;100178.42;109080;1267;22917;-80
2022/06/22 10:46:18;;;;;;;3.70;1.20;;;;;;;28.79;25.74;100181.77;109558;1262;23764;-81
2022/06/22 10:49:24;;;;;;;4.10;1.50;;;;;;;28.61;26.08;100182.77;109664;1262;21979;-80
2022/06/22 10:52:32;;;;;;;4.70;1.50;;;;;;;28.41;26.31;100185.34;110408;1256;21964;-80
2022/06/22 10:55:48;;;;;;;3.50;1.20;;;;;;;28.09;26.31;100186.45;110282;1256;22041;-77
2022/06/22 10:58:40;;;;;;;2.10;1.10;;;;;;;27.82;26.99;100185.65;110590;1250;21966;-77
2022/06/22 11:01:53;;;;;;;4.80;2.50;;;;;;;27.76;27.30;100180.82;110564;1256;22853;-77
2022/06/22 11:05:06;;;;;;;3.30;1.10;;;;;;;27.71;27.35;100181.98;110541;1253;21962;-77
2022/06/22 11:08:10;;;;;;;3.80;1.60;;;;;;;27.60;26.97;100181.44;110545;1253;23616;-75
2022/06/22 11:11:09;;;;;;;3.40;1.70;;;;;;;27.38;26.95;100184.83;110515;1253;21963;-77
2022/06/22 11:14:05;;;;;;;3.20;1.50;;;;;;;27.28;27.29;100191.89;110527;1254;23597;-75
2022/06/22 11:17:08;;;;;;;6.70;1.60;;;;;;;27.18;27.32;100190.48;110503;1254;22987;-76
2022/06/22 11:20:28;;;;;;;5.70;1.10;;;;;;;27.03;27.69;100190.63;110801;1250;21990;-77
2022/06/22 11:23:29;;;;;;;5.40;1.30;;;;;;;26.93;28.17;100187.48;110831;1250;23553;-76
2022/06/22 11:33:09;;;;;;;4.50;1.30;;;;;;;26.89;28.74;100178.52;110554;1256;21993;-75
2022/06/22 11:36:19;;;;;;;3.10;1.20;;;;;;;26.83;28.17;100172.54;110365;1255;23146;-76
2022/06/22 11:39:17;;;;;;;3.20;1.30;;;;;;;26.72;28.40;100174.45;110631;1253;23667;-76
2022/06/22 11:42:42;;;;;;;2.90;0.90;;;;;;;26.67;28.63;100173.43;110406;1256;21964;-76
2022/06/22 11:45:51;;;;;;;2.20;0.80;;;;;;;26.58;28.66;100171.41;109334;1265;23065;-76
2022/06/22 11:48:42;;;;;;;3.00;0.80;;;;;;;26.50;28.35;100164.58;109516;1264;21997;-76
2022/06/22 11:51:42;;;;;;;3.60;1.20;;;;;;;26.48;28.49;100165.34;109624;1264;23029;-76
2022/06/22 11:54:47;;;;;;;1.90;1.00;;;;;;;26.48;28.50;100169.29;109739;1265;24339;-76
2022/06/22 11:58:06;;;;;;;6.30;1.20;;;;;;;26.43;28.49;100160.45;109603;1264;22308;-76
2022/06/22 12:00:49;;;;;;;2.20;0.80;;;;;;;26.42;28.32;100156.56;109576;1264;21988;-77
2022/06/22 12:03:37;;;;;;;1.70;0.80;;;;;;;26.39;27.89;100154.95;109950;1259;22832;-77
2022/06/22 12:06:50;;;;;;;6.70;1.40;;;;;;;26.28;27.74;100151.47;110146;1256;23662;-76
2022/06/22 12:09:50;;;;;;;3.10;1.20;;;;;;;26.23;27.95;100152.57;110481;1256;22732;-76
2022/06/22 12:13:00;;;;;;;2.70;1.10;;;;;;;26.24;28.31;100157.77;110457;1256;21979;-76
2022/06/22 12:16:16;;;;;;;4.20;0.90;;;;;;;26.25;27.98;100156.79;110502;1256;23577;-76
2022/06/22 12:19:09;;;;;;;3.10;1.00;;;;;;;26.25;28.24;100148.51;109870;1261;21971;-76
2022/06/22 12:21:48;;;;;;;4.00;0.90;;;;;;;26.25;28.73;100150.03;109595;1262;22505;-75
2022/06/22 12:24:46;;;;;;;6.40;1.40;;;;;;;26.25;28.68;100144.83;110032;1261;23123;-81
2022/06/22 12:28:14;;;;;;;2.90;1.50;;;;;;;26.23;28.48;100141.54;110170;1259;22038;-79
2022/06/22 12:31:10;;;;;;;2.80;1.40;;;;;;;26.08;28.67;100136.16;108934;1270;23030;-78
2022/06/22 12:34:12;;;;;;;5.80;1.20;;;;;;;26.02;29.34;100133.00;108762;1270;23204;-76
2022/06/22 12:36:48;;;;;;;5.60;1.80;;;;;;;26.02;29.54;100135.21;108934;1270;23799;-76
2022/06/22 12:39:41;;;;;;;3.70;1.40;;;;;;;26.02;29.49;100136.67;108779;1268;24295;-76
2022/06/22 12:42:50;;;;;;;2.80;0.90;;;;;;;25.99;29.30;100139.55;108942;1270;21981;-76
2022/06/22 12:45:52;;;;;;;6.80;1.30;;;;;;;25.96;29.42;100137.95;109803;1264;23235;-75
2022/06/22 12:48:48;;;;;;;5.00;1.30;;;;;;;25.99;29.64;100142.21;109047;1269;23003;-75
2022/06/22 12:52:01;;;;;;;5.90;1.40;;;;;;;26.01;29.31;100142.80;108978;1270;22170;-78
2022/06/22 12:54:51;;;;;;;5.10;1.20;;;;;;;26.01;29.35;100136.90;108305;1279;23065;-75
2022/06/22 12:57:54;;;;;;;4.30;1.00;;;;;;;26.06;29.55;100140.46;108187;1279;23065;-75
2022/06/22 13:00:25;;;;;;;3.70;1.00;;;;;;;26.09;29.17;100148.13;108116;1280;22110;-75
2022/06/22 13:03:09;;;;;;;4.00;0.90;;;;;;;26.10;28.75;100144.39;108251;1279;23000;-75
2022/06/22 13:05:38;;;;;;;4.70;1.30;;;;;;;26.10;28.65;100144.98;108377;1276;22044;-76
2022/06/22 13:08:21;;;;;;;2.90;1.30;;;;;;;26.06;28.56;100140.94;109101;1264;21982;-75
2022/06/22 13:10:58;;;;;;;2.70;0.70;;;;;;;26.01;28.72;100133.38;109313;1265;21985;-75
2022/06/22 13:14:13;;;;;;;2.60;1.10;;;;;;;25.98;28.65;100135.17;109729;1260;21965;-76
2022/06/22 13:17:16;;;;;;;2.50;1.00;;;;;;;25.96;28.68;100131.71;110310;1259;22438;-75
2022/06/22 13:20:39;;;;;;;4.50;1.30;;;;;;;25.95;28.73;100126.26;109644;1264;21973;-76
2022/06/22 13:23:56;;;;;;;;;;;;;;;;;;;;;
2022/06/22 13:27:31;;;;;;;3.50;1.10;;;;;;;25.95;28.96;100119.98;109397;1265;21972;-75
2022/06/22 13:30:26;;;;;;;5.00;1.00;;;;;;;25.92;28.80;100112.30;109196;1266;22001;-74
2022/06/22 13:33:27;;;;;;;4.60;2.20;;;;;;;25.89;28.69;100111.98;109594;1264;23598;-73
2022/06/22 13:36:33;;;;;;;3.10;1.10;;;;;;;25.90;28.63;100113.48;109379;1266;23588;-78
2022/06/22 13:39:25;;;;;;;5.90;1.10;;;;;;;25.91;28.71;100117.06;109613;1264;23615;-77
2022/06/22 13:42:03;;;;;;;;;;;;;;;25.90;28.63;100111.39;109073;1267;22740;-80
2022/06/22 13:44:57;;;;;;;3.30;1.10;;;;;;;25.81;28.46;100114.59;109234;1267;21982;-80
2022/06/22 13:47:59;;;;;;;7.30;1.10;;;;;;;25.77;28.49;100111.01;109229;1264;21980;-79
2022/06/22 13:50:32;;;;;;;4.10;1.20;;;;;;;25.77;29.00;100110.90;109019;1267;23776;-78
2022/06/22 13:53:26;;;;;;;2.40;1.00;;;;;;;25.78;28.99;100111.61;109051;1270;21984;-78
2022/06/22 13:56:14;;;;;;;2.40;1.00;;;;;;;25.79;29.10;100109.95;109099;1267;22205;-78
2022/06/22 13:58:52;;;;;;;4.10;1.40;;;;;;;25.82;29.06;100110.59;108946;1269;22751;-76
2022/06/22 14:01:39;;;;;;;4.50;1.30;;;;;;;25.86;28.89;100114.96;109092;1262;24305;-77
2022/06/22 14:04:46;;;;;;;2.60;1.10;;;;;;;25.88;28.85;100114.52;109499;1262;23550;-76
2022/06/22 14:08:32;;;;;;;4.10;0.90;;;;;;;25.82;28.61;100110.36;108770;1271;21968;-77
2022/06/22 14:11:22;;;;;;;2.80;1.10;;;;;;;25.76;28.73;100106.90;108954;1267;21963;-76
2022/06/22 14:14:14;;;;;;;3.60;1.00;;;;;;;25.71;28.79;100103.02;109070;1270;22850;-77
2022/06/22 14:17:15;;;;;;;3.50;1.90;;;;;;;25.71;28.96;100098.91;108916;1270;22002;-77
2022/06/22 14:20:02;;;;;;;3.80;2.10;;;;;;;25.71;28.72;100096.90;108587;1273;21996;-77
2022/06/22 14:23:28;;;;;;;2.90;1.10;;;;;;;25.65;28.69;100089.45;108508;1276;23591;-76
2022/06/22 14:26:40;;;;;;;3.10;0.90;;;;;;;25.63;29.02;100089.51;108328;1279;23592;-77
2022/06/22 14:29:51;;;;;;;2.30;0.80;;;;;;;25.64;29.04;100084.30;108408;1279;21978;-76
2022/06/22 14:32:49;;;;;;;2.90;1.20;;;;;;;25.63;29.02;100083.23;108588;1270;21984;-76
2022/06/22 14:36:18;;;;;;;3.40;1.20;;;;;;;25.61;28.93;100075.28;109227;1268;22091;-76
2022/06/22 14:39:42;;;;;;;3.70;2.20;;;;;;;25.60;29.19;100072.97;108875;1269;22049;-76
2022/06/22 14:42:56;;;;;;;3.70;1.10;;;;;;;25.62;29.11;100070.14;108834;1271;21984;-76
2022/06/22 14:46:27;;;;;;;4.00;1.10;;;;;;;25.57;28.95;100068.59;108596;1274;21992;-75
2022/06/22 14:49:30;;;;;;;6.90;1.70;;;;;;;25.54;29.05;100067.83;108037;1285;22009;-77
2022/06/22 14:52:37;;;;;;;3.70;1.90;;;;;;;25.48;28.97;100067.35;107675;1285;22018;-78
2022/06/22 14:55:45;;;;;;;3.00;1.40;;;;;;;25.47;28.98;100061.02;107298;1289;21986;-76
2022/06/22 14:59:27;;;;;;;3.00;0.90;;;;;;;25.45;29.03;100058.44;107887;1285;23726;-76
2022/06/22 15:02:37;;;;;;;4.30;1.10;;;;;;;25.42;29.02;100050.23;107959;1285;22017;-74
2022/06/22 15:05:30;;;;;;;4.90;1.20;;;;;;;25.37;29.18;100049.38;108370;1279;21999;-76
2022/06/22 15:08:32;;;;;;;1.80;0.90;;;;;;;25.33;29.27;100050.84;108410;1276;21998;-75
2022/06/22 15:15:27;;;;;;;5.50;1.40;;;;;;;25.34;29.26;100051.31;107497;1289;22437;-75
2022/06/22 15:18:37;;;;;;;7.30;1.30;;;;;;;25.39;29.20;100055.75;107380;1289;22082;-76
2022/06/22 15:21:25;;;;;;;5.60;3.70;;;;;;;25.38;29.00;100059.33;107764;1282;22061;-76
2022/06/22 15:24:49;;;;;;;3.80;1.90;;;;;;;25.43;28.94;100052.34;107343;1289;544228;-77